LRCL/CLJ METAR and TAF weather

Enter ICAO airport designator
Station Type Date Time Source
LRCL METAR 2022/12/04 04:00 UTC NOAA

LRCL 040400Z 13008KT 5000 BR OVC002 02/02 Q1025


Station Type Date Time Source
LRCL Decoded METAR 2022/12/04 04:00 UTC NOAA

Cluj-Napoca, Romania (LRCL) 46-47N 023-34E 413M
Dec 03, 2022 - 11:00 PM EST / 2022.12.04 0400 UTC
Wind: from the SE (130 degrees) at 9 MPH (8 KT):0
Visibility: 3 mile(s):0
Sky conditions: overcast
Weather: mist
Temperature: 35 F (2 C)
Windchill: 28 F (-2 C):1
Dew Point: 35 F (2 C)
Relative Humidity: 100%
Pressure (altimeter): 30.27 in. Hg (1025 hPa)
ob: LRCL 040400Z 13008KT 5000 BR OVC002 02/02 Q1025
cycle: 4

Station Type Date Time Source
LRCL TAF 2007/05/23 16:57 UTC NOAA

TAF
AMD LRCL 231657Z 231607 VRB02MPS 9999 SCT030 BKN080
TEMPO 1719 VRB15G20MPS 1500 TSRAGR SCT010 BKN020CB OVC080

Example: see airport list